sensor_id;sensor_type;location;lat;lon;timestamp;temperature;humidity
2002;DHT22;1003;48.002;7.788;2022-08-19T00:00:32;18.50;99.90
2002;DHT22;1003;48.002;7.788;2022-08-19T00:02:59;18.40;99.90
2002;DHT22;1003;48.002;7.788;2022-08-19T00:05:26;18.40;99.90
2002;DHT22;1003;48.002;7.788;2022-08-19T00:07:53;18.70;99.90
2002;DHT22;1003;48.002;7.788;2022-08-19T00:10:21;18.40;99.90
2002;DHT22;1003;48.002;7.788;2022-08-19T00:12:49;18.50;99.90
2002;DHT22;1003;48.002;7.788;2022-08-19T00:15:20;18.50;99.90
2002;DHT22;1003;48.002;7.788;2022-08-19T00:17:48;18.40;99.90
2002;DHT22;1003;48.002;7.788;2022-08-19T00:20:18;18.60;99.90
2002;DHT22;1003;48.002;7.788;2022-08-19T00:22:47;18.60;99.90
2002;DHT22;1003;48.002;7.788;2022-08-19T00:25:15;18.30;99.90
2002;DHT22;1003;48.002;7.788;2022-08-19T00:27:42;18.30;99.90
2002;DHT22;1003;48.002;7.788;2022-08-19T00:30:11;18.30;99.90
2002;DHT22;1003;48.002;7.788;2022-08-19T00:32:40;18.40;99.90
2002;DHT22;1003;48.002;7.788;2022-08-19T00:35:08;18.40;99.90
2002;DHT22;1003;48.002;7.788;2022-08-19T00:37:37;18.50;99.90
2002;DHT22;1003;48.002;7.788;2022-08-19T00:40:10;18.50;99.90
2002;DHT22;1003;48.002;7.788;2022-08-19T00:42:39;18.20;99.90
2002;DHT22;1003;48.002;7.788;2022-08-19T00:45:11;18.50;99.90
2002;DHT22;1003;48.002;7.788;2022-08-19T00:47:41;18.50;99.90
2002;DHT22;1003;48.002;7.788;2022-08-19T00:50:08;18.50;99.90
2002;DHT22;1003;48.002;7.788;2022-08-19T00:52:39;18.30;99.90
2002;DHT22;1003;48.002;7.788;2022-08-19T00:55:13;18.50;99.90
2002;DHT22;1003;48.002;7.788;2022-08-19T00:57:46;18.50;99.90
2002;DHT22;1003;48.002;7.788;2022-08-19T01:00:20;18.60;99.90
2002;DHT22;1003;48.002;7.788;2022-08-19T01:02:52;18.40;99.90
2002;DHT22;1003;48.002;7.788;2022-08-19T01:05:23;18.30;99.90
2002;DHT22;1003;48.002;7.788;2022-08-19T01:07:55;18.30;99.90
2002;DHT22;1003;48.002;7.788;2022-08-19T01:10:27;18.70;99.90
2002;DHT22;1003;48.002;7.788;2022-08-19T01:12:59;18.40;99.90
2002;DHT22;1003;48.002;7.788;2022-08-19T01:15:32;18.60;99.90
2002;DHT22;1003;48.002;7.788;2022-08-19T01:18:07;18.70;99.90
2002;DHT22;1003;48.002;7.788;2022-08-19T01:20:37;18.30;99.90
2002;DHT22;1003;48.002;7.788;2022-08-19T01:23:08;18.30;99.90
2002;DHT22;1003;48.002;7.788;2022-08-19T01:25:39;18.60;99.90
2002;DHT22;1003;48.002;7.788;2022-08-19T01:28:15;18.30;99.90
2002;DHT22;1003;48.002;7.788;2022-08-19T01:30:44;18.50;99.90
2002;DHT22;1003;48.002;7.788;2022-08-19T01:33:12;18.60;99.90
2002;DHT22;1003;48.002;7.788;2022-08-19T01:35:41;18.30;99.90
2002;DHT22;1003;48.002;7.788;2022-08-19T01:38:19;18.60;99.90
2002;DHT22;1003;48.002;7.788;2022-08-19T01:40:49;18.60;99.90
2002;DHT22;1003;48.002;7.788;2022-08-19T01:43:22;18.60;99.90
2002;DHT22;1003;48.002;7.788;2022-08-19T01:45:49;18.60;99.90
2002;DHT22;1003;48.002;7.788;2022-08-19T01:48:16;18.30;99.90
2002;DHT22;1003;48.002;7.788;2022-08-19T01:50:44;18.30;99.90
2002;DHT22;1003;48.002;7.788;2022-08-19T01:53:12;18.40;99.90
2002;DHT22;1003;48.002;7.788;2022-08-19T01:55:42;18.40;99.90
2002;DHT22;1003;48.002;7.788;2022-08-19T01:58:12;18.50;99.90
2002;DHT22;1003;48.002;7.788;2022-08-19T02:00:44;18.20;99.90
2002;DHT22;1003;48.002;7.788;2022-08-19T02:03:11;18.30;99.90
2002;DHT22;1003;48.002;7.788;2022-08-19T02:05:39;18.00;99.90
2002;DHT22;1003;48.002;7.788;2022-08-19T02:08:08;18.30;99.90
2002;DHT22;1003;48.002;7.788;2022-08-19T02:10:40;18.10;99.90
2002;DHT22;1003;48.002;7.788;2022-08-19T02:13:10;18.30;99.90
2002;DHT22;1003;48.002;7.788;2022-08-19T02:15:38;18.30;99.90
2002;DHT22;1003;48.002;7.788;2022-08-19T02:18:06;18.30;99.90
2002;DHT22;1003;48.002;7.788;2022-08-19T02:20:34;18.00;99.90
2002;DHT22;1003;48.002;7.788;2022-08-19T02:23:01;18.20;99.90
2002;DHT22;1003;48.002;7.788;2022-08-19T02:25:28;18.00;99.90
2002;DHT22;1003;48.002;7.788;2022-08-19T02:27:56;18.20;99.90
2002;DHT22;1003;48.002;7.788;2022-08-19T02:30:23;18.30;99.90
2002;DHT22;1003;48.002;7.788;2022-08-19T02:32:51;18.20;99.90
2002;DHT22;1003;48.002;7.788;2022-08-19T02:35:18;17.90;99.90
2002;DHT22;1003;48.002;7.788;2022-08-19T02:37:46;17.90;99.90
2002;DHT22;1003;48.002;7.788;2022-08-19T02:40:32;18.20;99.90
2002;DHT22;1003;48.002;7.788;2022-08-19T02:43:01;17.90;99.90
2002;DHT22;1003;48.002;7.788;2022-08-19T02:45:31;18.00;99.90
2002;DHT22;1003;48.002;7.788;2022-08-19T02:47:59;18.10;99.90
2002;DHT22;1003;48.002;7.788;2022-08-19T02:50:26;18.20;99.90
2002;DHT22;1003;48.002;7.788;2022-08-19T02:52:54;17.90;99.90
2002;DHT22;1003;48.002;7.788;2022-08-19T02:55:21;17.80;99.90
2002;DHT22;1003;48.002;7.788;2022-08-19T02:57:49;18.10;99.90
2002;DHT22;1003;48.002;7.788;2022-08-19T03:00:17;17.90;99.90
2002;DHT22;1003;48.002;7.788;2022-08-19T03:02:44;18.10;99.90
2002;DHT22;1003;48.002;7.788;2022-08-19T03:05:12;17.80;99.90
2002;DHT22;1003;48.002;7.788;2022-08-19T03:07:39;17.90;99.90
2002;DHT22;1003;48.002;7.788;2022-08-19T03:10:07;18.10;99.90
2002;DHT22;1003;48.002;7.788;2022-08-19T03:12:36;18.10;99.90
2002;DHT22;1003;48.002;7.788;2022-08-19T03:15:05;17.90;99.90
2002;DHT22;1003;48.002;7.788;2022-08-19T03:17:35;18.10;99.90
2002;DHT22;1003;48.002;7.788;2022-08-19T03:20:04;18.10;99.90
2002;DHT22;1003;48.002;7.788;2022-08-19T03:22:32;17.80;99.90
2002;DHT22;1003;48.002;7.788;2022-08-19T03:24:59;17.90;99.90
2002;DHT22;1003;48.002;7.788;2022-08-19T03:27:26;17.80;99.90
2002;DHT22;1003;48.002;7.788;2022-08-19T03:29:54;17.90;99.90
2002;DHT22;1003;48.002;7.788;2022-08-19T03:32:22;17.80;99.90
2002;DHT22;1003;48.002;7.788;2022-08-19T03:34:50;17.70;99.90
2002;DHT22;1003;48.002;7.788;2022-08-19T03:37:18;18.10;99.90
2002;DHT22;1003;48.002;7.788;2022-08-19T03:39:45;18.00;99.90
2002;DHT22;1003;48.002;7.788;2022-08-19T03:42:12;18.10;99.90
2002;DHT22;1003;48.002;7.788;2022-08-19T03:44:39;18.10;99.90
2002;DHT22;1003;48.002;7.788;2022-08-19T03:47:07;18.00;99.90
2002;DHT22;1003;48.002;7.788;2022-08-19T03:49:34;17.80;99.90
2002;DHT22;1003;48.002;7.788;2022-08-19T03:52:04;17.80;99.90
2002;DHT22;1003;48.002;7.788;2022-08-19T03:54:33;18.20;99.90
2002;DHT22;1003;48.002;7.788;2022-08-19T03:57:00;17.90;99.90
2002;DHT22;1003;48.002;7.788;2022-08-19T03:59:30;18.20;99.90
2002;DHT22;1003;48.002;7.788;2022-08-19T04:02:03;18.20;99.90
2002;DHT22;1003;48.002;7.788;2022-08-19T04:04:34;18.20;99.90
2002;DHT22;1003;48.002;7.788;2022-08-19T04:07:04;18.10;99.90
2002;DHT22;1003;48.002;7.788;2022-08-19T04:09:33;17.90;99.90
2002;DHT22;1003;48.002;7.788;2022-08-19T04:12:00;18.20;99.90
2002;DHT22;1003;48.002;7.788;2022-08-19T04:14:28;18.00;99.90
2002;DHT22;1003;48.002;7.788;2022-08-19T04:16:57;17.90;99.90
2002;DHT22;1003;48.002;7.788;2022-08-19T04:19:26;18.20;99.90
2002;DHT22;1003;48.002;7.788;2022-08-19T04:21:55;18.00;99.90
2002;DHT22;1003;48.002;7.788;2022-08-19T04:24:24;18.30;99.90
2002;DHT22;1003;48.002;7.788;2022-08-19T04:26:51;18.10;99.90
2002;DHT22;1003;48.002;7.788;2022-08-19T04:29:20;18.40;99.90
2002;DHT22;1003;48.002;7.788;2022-08-19T04:31:50;18.00;99.90
2002;DHT22;1003;48.002;7.788;2022-08-19T04:34:20;18.40;99.90
2002;DHT22;1003;48.002;7.788;2022-08-19T04:36:50;18.00;99.90
2002;DHT22;1003;48.002;7.788;2022-08-19T04:39:20;18.40;99.90
2002;DHT22;1003;48.002;7.788;2022-08-19T04:41:50;18.40;99.90
2002;DHT22;1003;48.002;7.788;2022-08-19T04:44:35;18.00;99.90
2002;DHT22;1003;48.002;7.788;2022-08-19T04:47:03;18.20;99.90
2002;DHT22;1003;48.002;7.788;2022-08-19T04:49:31;18.00;99.90
2002;DHT22;1003;48.002;7.788;2022-08-19T04:51:59;18.40;99.90
2002;DHT22;1003;48.002;7.788;2022-08-19T04:54:26;18.00;99.90
2002;DHT22;1003;48.002;7.788;2022-08-19T04:59:26;18.20;99.90
2002;DHT22;1003;48.002;7.788;2022-08-19T05:01:54;18.10;99.90
2002;DHT22;1003;48.002;7.788;2022-08-19T05:04:21;18.20;99.90
2002;DHT22;1003;48.002;7.788;2022-08-19T05:06:48;18.00;99.90
2002;DHT22;1003;48.002;7.788;2022-08-19T05:09:16;18.00;99.90
2002;DHT22;1003;48.002;7.788;2022-08-19T05:11:44;18.10;99.90
2002;DHT22;1003;48.002;7.788;2022-08-19T05:14:12;18.10;99.90
2002;DHT22;1003;48.002;7.788;2022-08-19T05:16:40;18.40;99.90
2002;DHT22;1003;48.002;7.788;2022-08-19T05:19:10;18.20;99.90
2002;DHT22;1003;48.002;7.788;2022-08-19T05:24:41;18.30;99.90
2002;DHT22;1003;48.002;7.788;2022-08-19T05:27:08;18.40;99.90
2002;DHT22;1003;48.002;7.788;2022-08-19T05:29:37;18.50;99.90
2002;DHT22;1003;48.002;7.788;2022-08-19T05:32:05;18.20;99.90
2002;DHT22;1003;48.002;7.788;2022-08-19T05:34:34;18.20;99.90
2002;DHT22;1003;48.002;7.788;2022-08-19T05:37:04;18.20;99.90
2002;DHT22;1003;48.002;7.788;2022-08-19T05:39:34;18.20;99.90
2002;DHT22;1003;48.002;7.788;2022-08-19T05:42:05;18.60;99.90
2002;DHT22;1003;48.002;7.788;2022-08-19T05:44:40;18.70;99.90
2002;DHT22;1003;48.002;7.788;2022-08-19T05:47:11;18.60;99.90
2002;DHT22;1003;48.002;7.788;2022-08-19T05:49:40;18.40;99.90
2002;DHT22;1003;48.002;7.788;2022-08-19T05:54:41;18.80;99.90
2002;DHT22;1003;48.002;7.788;2022-08-19T05:57:09;18.70;99.90
2002;DHT22;1003;48.002;7.788;2022-08-19T06:02:07;18.50;99.90
2002;DHT22;1003;48.002;7.788;2022-08-19T06:07:03;19.00;99.90
2002;DHT22;1003;48.002;7.788;2022-08-19T06:14:31;18.70;99.90
2002;DHT22;1003;48.002;7.788;2022-08-19T06:24:29;19.20;99.90
2002;DHT22;1003;48.002;7.788;2022-08-19T06:26:58;19.30;99.90
2002;DHT22;1003;48.002;7.788;2022-08-19T06:49:34;19.60;99.90
2002;DHT22;1003;48.002;7.788;2022-08-19T06:52:03;19.70;99.90
2002;DHT22;1003;48.002;7.788;2022-08-19T07:07:05;19.50;99.90
2002;DHT22;1003;48.002;7.788;2022-08-19T07:09:35;20.20;99.90
2002;DHT22;1003;48.002;7.788;2022-08-19T07:12:05;20.00;99.90
2002;DHT22;1003;48.002;7.788;2022-08-19T07:14:36;20.20;99.90
2002;DHT22;1003;48.002;7.788;2022-08-19T07:17:06;19.90;99.90
2002;DHT22;1003;48.002;7.788;2022-08-19T07:19:38;20.70;99.90
2002;DHT22;1003;48.002;7.788;2022-08-19T07:22:07;20.90;99.90
2002;DHT22;1003;48.002;7.788;2022-08-19T07:24:36;20.40;99.90
2002;DHT22;1003;48.002;7.788;2022-08-19T07:27:05;20.60;99.90
2002;DHT22;1003;48.002;7.788;2022-08-19T07:29:34;20.70;99.90
2002;DHT22;1003;48.002;7.788;2022-08-19T07:32:03;20.70;99.90
2002;DHT22;1003;48.002;7.788;2022-08-19T07:34:31;21.50;99.90
2002;DHT22;1003;48.002;7.788;2022-08-19T07:37:04;21.20;99.90
2002;DHT22;1003;48.002;7.788;2022-08-19T07:39:33;21.70;99.90
2002;DHT22;1003;48.002;7.788;2022-08-19T07:42:05;21.60;99.90
2002;DHT22;1003;48.002;7.788;2022-08-19T07:44:35;22.10;99.90
2002;DHT22;1003;48.002;7.788;2022-08-19T07:47:04;22.00;99.90
2002;DHT22;1003;48.002;7.788;2022-08-19T07:49:32;21.50;99.90
2002;DHT22;1003;48.002;7.788;2022-08-19T07:52:02;21.70;99.90
2002;DHT22;1003;48.002;7.788;2022-08-19T07:54:34;22.50;99.90
2002;DHT22;1003;48.002;7.788;2022-08-19T07:57:04;22.10;99.90
2002;DHT22;1003;48.002;7.788;2022-08-19T07:59:32;21.90;99.90
2002;DHT22;1003;48.002;7.788;2022-08-19T08:04:29;21.90;99.90
2002;DHT22;1003;48.002;7.788;2022-08-19T08:07:17;21.80;99.90
2002;DHT22;1003;48.002;7.788;2022-08-19T08:10:02;22.60;99.90
2002;DHT22;1003;48.002;7.788;2022-08-19T08:12:33;21.90;99.90
2002;DHT22;1003;48.002;7.788;2022-08-19T08:15:10;22.00;99.90
2002;DHT22;1003;48.002;7.788;2022-08-19T08:17:42;21.70;99.90
2002;DHT22;1003;48.002;7.788;2022-08-19T08:20:10;22.00;99.90
2002;DHT22;1003;48.002;7.788;2022-08-19T08:22:43;21.70;99.90
2002;DHT22;1003;48.002;7.788;2022-08-19T08:25:28;21.80;99.90
2002;DHT22;1003;48.002;7.788;2022-08-19T08:27:57;22.00;99.90
2002;DHT22;1003;48.002;7.788;2022-08-19T08:30:27;21.60;99.90
2002;DHT22;1003;48.002;7.788;2022-08-19T08:32:56;22.00;99.90
2002;DHT22;1003;48.002;7.788;2022-08-19T08:35:24;22.30;99.90
2002;DHT22;1003;48.002;7.788;2022-08-19T08:37:53;21.60;99.90
2002;DHT22;1003;48.002;7.788;2022-08-19T08:40:26;21.50;99.90
2002;DHT22;1003;48.002;7.788;2022-08-19T08:42:59;21.60;99.90
2002;DHT22;1003;48.002;7.788;2022-08-19T08:45:35;21.70;99.90
2002;DHT22;1003;48.002;7.788;2022-08-19T08:48:16;22.10;99.90
2002;DHT22;1003;48.002;7.788;2022-08-19T08:50:47;22.10;99.90
2002;DHT22;1003;48.002;7.788;2022-08-19T08:53:20;22.00;99.90
2002;DHT22;1003;48.002;7.788;2022-08-19T08:55:48;22.50;99.90
2002;DHT22;1003;48.002;7.788;2022-08-19T08:58:20;22.40;99.90
2002;DHT22;1003;48.002;7.788;2022-08-19T09:00:53;22.30;99.90
2002;DHT22;1003;48.002;7.788;2022-08-19T09:03:22;21.90;99.90
2002;DHT22;1003;48.002;7.788;2022-08-19T09:05:59;22.50;99.90
2002;DHT22;1003;48.002;7.788;2022-08-19T09:08:43;22.60;99.90
2002;DHT22;1003;48.002;7.788;2022-08-19T09:11:21;22.30;99.90
2002;DHT22;1003;48.002;7.788;2022-08-19T09:16:37;22.60;99.90
2002;DHT22;1003;48.002;7.788;2022-08-19T09:19:07;22.20;99.90
2002;DHT22;1003;48.002;7.788;2022-08-19T09:21:36;22.60;99.90
2002;DHT22;1003;48.002;7.788;2022-08-19T09:24:06;23.00;99.90
2002;DHT22;1003;48.002;7.788;2022-08-19T09:26:33;23.10;99.90
2002;DHT22;1003;48.002;7.788;2022-08-19T09:29:01;23.10;99.90
2002;DHT22;1003;48.002;7.788;2022-08-19T09:31:31;23.00;99.90
2002;DHT22;1003;48.002;7.788;2022-08-19T09:33:59;22.90;99.90
2002;DHT22;1003;48.002;7.788;2022-08-19T09:36:29;22.60;99.90
2002;DHT22;1003;48.002;7.788;2022-08-19T09:38:58;22.70;99.90
2002;DHT22;1003;48.002;7.788;2022-08-19T09:41:28;22.70;99.90
2002;DHT22;1003;48.002;7.788;2022-08-19T09:43:56;22.80;99.90
2002;DHT22;1003;48.002;7.788;2022-08-19T09:46:27;22.80;99.90
2002;DHT22;1003;48.002;7.788;2022-08-19T09:49:00;23.00;99.90
2002;DHT22;1003;48.002;7.788;2022-08-19T09:51:27;22.90;99.90
2002;DHT22;1003;48.002;7.788;2022-08-19T09:53:59;23.40;99.90
2002;DHT22;1003;48.002;7.788;2022-08-19T09:56:29;23.10;99.90
2002;DHT22;1003;48.002;7.788;2022-08-19T09:58:58;23.30;99.90
2002;DHT22;1003;48.002;7.788;2022-08-19T10:01:28;23.30;99.90
2002;DHT22;1003;48.002;7.788;2022-08-19T10:03:58;23.40;99.90
2002;DHT22;1003;48.002;7.788;2022-08-19T10:06:27;23.50;99.90
2002;DHT22;1003;48.002;7.788;2022-08-19T10:08:59;24.10;99.90
2002;DHT22;1003;48.002;7.788;2022-08-19T10:11:26;24.30;99.90
2002;DHT22;1003;48.002;7.788;2022-08-19T10:13:55;24.00;99.90
2002;DHT22;1003;48.002;7.788;2022-08-19T10:16:23;24.10;99.90
2002;DHT22;1003;48.002;7.788;2022-08-19T10:18:52;24.20;99.90
2002;DHT22;1003;48.002;7.788;2022-08-19T10:21:21;24.20;99.90
2002;DHT22;1003;48.002;7.788;2022-08-19T10:23:53;24.60;99.90
2002;DHT22;1003;48.002;7.788;2022-08-19T10:28:55;24.80;99.90
2002;DHT22;1003;48.002;7.788;2022-08-19T10:31:26;24.80;99.90
2002;DHT22;1003;48.002;7.788;2022-08-19T10:33:55;24.70;99.90
2002;DHT22;1003;48.002;7.788;2022-08-19T10:36:25;24.40;99.90
2002;DHT22;1003;48.002;7.788;2022-08-19T10:41:26;24.30;99.90
2002;DHT22;1003;48.002;7.788;2022-08-19T10:43:58;24.50;99.90
2002;DHT22;1003;48.002;7.788;2022-08-19T10:46:28;24.70;99.90
2002;DHT22;1003;48.002;7.788;2022-08-19T10:54:12;24.80;99.90
2002;DHT22;1003;48.002;7.788;2022-08-19T10:56:39;25.00;99.90
2002;DHT22;1003;48.002;7.788;2022-08-19T10:59:21;25.10;99.90
2002;DHT22;1003;48.002;7.788;2022-08-19T11:01:50;25.00;99.90
2002;DHT22;1003;48.002;7.788;2022-08-19T11:04:19;24.80;99.90
2002;DHT22;1003;48.002;7.788;2022-08-19T11:06:48;25.00;99.90
2002;DHT22;1003;48.002;7.788;2022-08-19T11:09:19;25.10;99.90
2002;DHT22;1003;48.002;7.788;2022-08-19T11:14:20;25.30;99.90
2002;DHT22;1003;48.002;7.788;2022-08-19T11:16:50;25.20;99.90
2002;DHT22;1003;48.002;7.788;2022-08-19T11:19:19;25.50;99.90
2002;DHT22;1003;48.002;7.788;2022-08-19T11:21:48;25.70;99.90
2002;DHT22;1003;48.002;7.788;2022-08-19T11:24:19;25.90;99.90
2002;DHT22;1003;48.002;7.788;2022-08-19T11:29:21;25.80;99.90
2002;DHT22;1003;48.002;7.788;2022-08-19T11:34:22;25.90;99.90
2002;DHT22;1003;48.002;7.788;2022-08-19T11:36:52;26.10;99.90
2002;DHT22;1003;48.002;7.788;2022-08-19T11:39:21;26.30;99.90
2002;DHT22;1003;48.002;7.788;2022-08-19T11:46:46;25.80;99.90
2002;DHT22;1003;48.002;7.788;2022-08-19T11:51:46;26.20;99.90
2002;DHT22;1003;48.002;7.788;2022-08-19T11:54:15;26.20;99.90
2002;DHT22;1003;48.002;7.788;2022-08-19T11:56:44;26.60;99.90
2002;DHT22;1003;48.002;7.788;2022-08-19T12:01:41;26.50;99.90
2002;DHT22;1003;48.002;7.788;2022-08-19T12:04:10;26.60;99.90
2002;DHT22;1003;48.002;7.788;2022-08-19T12:06:39;26.50;99.90
2002;DHT22;1003;48.002;7.788;2022-08-19T12:09:08;26.40;99.90
2002;DHT22;1003;48.002;7.788;2022-08-19T12:11:37;26.40;99.90
2002;DHT22;1003;48.002;7.788;2022-08-19T12:14:08;26.30;99.90
2002;DHT22;1003;48.002;7.788;2022-08-19T12:16:40;26.40;99.90
2002;DHT22;1003;48.002;7.788;2022-08-19T12:19:07;26.50;99.90
2002;DHT22;1003;48.002;7.788;2022-08-19T12:21:36;26.70;99.90
2002;DHT22;1003;48.002;7.788;2022-08-19T12:24:04;26.50;99.90
2002;DHT22;1003;48.002;7.788;2022-08-19T12:26:32;26.80;99.90
2002;DHT22;1003;48.002;7.788;2022-08-19T12:28:59;26.60;99.90
2002;DHT22;1003;48.002;7.788;2022-08-19T12:31:27;26.70;99.90
2002;DHT22;1003;48.002;7.788;2022-08-19T12:33:55;27.30;99.90
2002;DHT22;1003;48.002;7.788;2022-08-19T12:36:22;27.40;99.90
2002;DHT22;1003;48.002;7.788;2022-08-19T12:38:52;26.80;99.90
2002;DHT22;1003;48.002;7.788;2022-08-19T12:41:19;26.70;99.90
2002;DHT22;1003;48.002;7.788;2022-08-19T12:43:48;27.20;99.90
2002;DHT22;1003;48.002;7.788;2022-08-19T12:46:17;27.40;99.90
2002;DHT22;1003;48.002;7.788;2022-08-19T12:51:14;26.60;99.90
2002;DHT22;1003;48.002;7.788;2022-08-19T12:53:45;26.20;99.90
2002;DHT22;1003;48.002;7.788;2022-08-19T12:56:14;26.10;99.90
2002;DHT22;1003;48.002;7.788;2022-08-19T13:06:11;25.70;99.90
2002;DHT22;1003;48.002;7.788;2022-08-19T13:13:44;26.10;99.90
2002;DHT22;1003;48.002;7.788;2022-08-19T13:16:13;26.40;99.90
2002;DHT22;1003;48.002;7.788;2022-08-19T13:18:42;26.30;99.90
2002;DHT22;1003;48.002;7.788;2022-08-19T15:03:48;22.50;99.90
2002;DHT22;1003;48.002;7.788;2022-08-19T15:08:49;22.20;99.90
2002;DHT22;1003;48.002;7.788;2022-08-19T15:11:19;22.30;99.90
2002;DHT22;1003;48.002;7.788;2022-08-19T15:13:49;22.30;99.90
2002;DHT22;1003;48.002;7.788;2022-08-19T15:16:19;22.30;99.90
2002;DHT22;1003;48.002;7.788;2022-08-19T15:18:49;22.50;99.90
2002;DHT22;1003;48.002;7.788;2022-08-19T15:21:19;22.70;99.90
2002;DHT22;1003;48.002;7.788;2022-08-19T15:28:46;22.40;99.90
2002;DHT22;1003;48.002;7.788;2022-08-19T15:31:20;22.70;99.90
2002;DHT22;1003;48.002;7.788;2022-08-19T15:36:17;23.10;99.90
2002;DHT22;1003;48.002;7.788;2022-08-19T15:38:44;23.10;99.90
2002;DHT22;1003;48.002;7.788;2022-08-19T15:51:24;24.10;99.90
2002;DHT22;1003;48.002;7.788;2022-08-19T15:53:52;24.20;99.90
2002;DHT22;1003;48.002;7.788;2022-08-19T16:01:34;24.40;99.90
2002;DHT22;1003;48.002;7.788;2022-08-19T16:12:16;24.40;99.90
2002;DHT22;1003;48.002;7.788;2022-08-19T16:14:44;24.40;99.90
2002;DHT22;1003;48.002;7.788;2022-08-19T16:19:41;24.20;99.90
2002;DHT22;1003;48.002;7.788;2022-08-19T16:29:35;24.00;99.90
2002;DHT22;1003;48.002;7.788;2022-08-19T16:32:04;24.00;99.90
2002;DHT22;1003;48.002;7.788;2022-08-19T16:34:35;24.20;99.90
2002;DHT22;1003;48.002;7.788;2022-08-19T16:37:03;24.20;99.90
2002;DHT22;1003;48.002;7.788;2022-08-19T16:49:28;24.40;99.90
2002;DHT22;1003;48.002;7.788;2022-08-19T16:54:24;24.20;99.90
2002;DHT22;1003;48.002;7.788;2022-08-19T16:56:51;24.20;99.90
2002;DHT22;1003;48.002;7.788;2022-08-19T17:04:20;24.10;99.90
2002;DHT22;1003;48.002;7.788;2022-08-19T17:09:15;24.10;99.90
2002;DHT22;1003;48.002;7.788;2022-08-19T19:57:24;19.10;99.90
2002;DHT22;1003;48.002;7.788;2022-08-19T20:02:19;19.10;99.90
2002;DHT22;1003;48.002;7.788;2022-08-19T20:07:17;19.00;99.90
2002;DHT22;1003;48.002;7.788;2022-08-19T20:10:05;18.90;99.90
2002;DHT22;1003;48.002;7.788;2022-08-19T20:15:00;19.00;99.90
2002;DHT22;1003;48.002;7.788;2022-08-19T20:17:27;19.20;99.90
2002;DHT22;1003;48.002;7.788;2022-08-19T20:29:48;18.70;99.90
2002;DHT22;1003;48.002;7.788;2022-08-19T20:32:15;19.00;99.90
2002;DHT22;1003;48.002;7.788;2022-08-19T20:37:13;18.60;99.90
2002;DHT22;1003;48.002;7.788;2022-08-19T20:39:41;18.80;99.90
2002;DHT22;1003;48.002;7.788;2022-08-19T20:47:04;18.20;99.90
2002;DHT22;1003;48.002;7.788;2022-08-19T20:52:00;18.60;99.90
2002;DHT22;1003;48.002;7.788;2022-08-19T20:54:28;18.40;99.90
2002;DHT22;1003;48.002;7.788;2022-08-19T21:01:52;18.00;99.90
2002;DHT22;1003;48.002;7.788;2022-08-19T21:04:20;17.40;99.90
2002;DHT22;1003;48.002;7.788;2022-08-19T21:06:48;18.10;99.90
2002;DHT22;1003;48.002;7.788;2022-08-19T21:09:16;18.10;99.90
2002;DHT22;1003;48.002;7.788;2022-08-19T21:11:43;17.90;99.90
2002;DHT22;1003;48.002;7.788;2022-08-19T21:19:07;17.90;99.90
2002;DHT22;1003;48.002;7.788;2022-08-19T21:21:35;17.60;99.90
2002;DHT22;1003;48.002;7.788;2022-08-19T21:24:02;17.70;99.90
2002;DHT22;1003;48.002;7.788;2022-08-19T21:26:29;17.80;99.90
2002;DHT22;1003;48.002;7.788;2022-08-19T21:28:56;17.30;99.90
2002;DHT22;1003;48.002;7.788;2022-08-19T21:31:25;17.40;99.90
2002;DHT22;1003;48.002;7.788;2022-08-19T21:33:52;18.00;99.90
2002;DHT22;1003;48.002;7.788;2022-08-19T21:36:19;18.20;99.90
2002;DHT22;1003;48.002;7.788;2022-08-19T21:38:46;18.10;99.90
2002;DHT22;1003;48.002;7.788;2022-08-19T21:41:13;18.10;99.90
2002;DHT22;1003;48.002;7.788;2022-08-19T21:43:40;18.10;99.90
2002;DHT22;1003;48.002;7.788;2022-08-19T21:46:08;17.60;99.90
2002;DHT22;1003;48.002;7.788;2022-08-19T21:48:36;18.10;99.90
2002;DHT22;1003;48.002;7.788;2022-08-19T21:51:03;18.00;99.90
2002;DHT22;1003;48.002;7.788;2022-08-19T21:53:30;18.00;99.90
2002;DHT22;1003;48.002;7.788;2022-08-19T21:55:58;18.10;99.90
2002;DHT22;1003;48.002;7.788;2022-08-19T21:58:25;18.00;99.90
2002;DHT22;1003;48.002;7.788;2022-08-19T22:00:52;17.30;99.90
2002;DHT22;1003;48.002;7.788;2022-08-19T22:03:19;17.90;99.90
2002;DHT22;1003;48.002;7.788;2022-08-19T22:05:48;17.80;99.90
2002;DHT22;1003;48.002;7.788;2022-08-19T22:08:15;17.70;99.90
2002;DHT22;1003;48.002;7.788;2022-08-19T22:10:42;17.30;99.90
2002;DHT22;1003;48.002;7.788;2022-08-19T22:13:09;17.20;99.90
2002;DHT22;1003;48.002;7.788;2022-08-19T22:15:36;17.50;99.90
2002;DHT22;1003;48.002;7.788;2022-08-19T22:18:03;17.60;99.90
2002;DHT22;1003;48.002;7.788;2022-08-19T22:20:31;17.50;99.90
2002;DHT22;1003;48.002;7.788;2022-08-19T22:23:02;17.20;99.90
2002;DHT22;1003;48.002;7.788;2022-08-19T22:25:33;17.60;99.90
2002;DHT22;1003;48.002;7.788;2022-08-19T22:28:06;17.60;99.90
2002;DHT22;1003;48.002;7.788;2022-08-19T22:30:36;17.70;99.90
2002;DHT22;1003;48.002;7.788;2022-08-19T22:33:07;17.60;99.90
2002;DHT22;1003;48.002;7.788;2022-08-19T22:35:37;17.20;99.90
2002;DHT22;1003;48.002;7.788;2022-08-19T22:38:07;17.50;99.90
2002;DHT22;1003;48.002;7.788;2022-08-19T22:40:40;17.30;99.90
2002;DHT22;1003;48.002;7.788;2022-08-19T22:43:15;17.50;99.90
2002;DHT22;1003;48.002;7.788;2022-08-19T22:45:45;17.50;99.90
2002;DHT22;1003;48.002;7.788;2022-08-19T22:48:15;17.70;99.90
2002;DHT22;1003;48.002;7.788;2022-08-19T22:50:45;17.50;99.90
2002;DHT22;1003;48.002;7.788;2022-08-19T22:53:29;17.20;99.90
2002;DHT22;1003;48.002;7.788;2022-08-19T22:55:57;17.20;99.90
2002;DHT22;1003;48.002;7.788;2022-08-19T22:58:24;17.60;99.90
2002;DHT22;1003;48.002;7.788;2022-08-19T23:00:52;17.50;99.90
2002;DHT22;1003;48.002;7.788;2022-08-19T23:03:19;17.00;99.90
2002;DHT22;1003;48.002;7.788;2022-08-19T23:05:46;17.00;99.90
2002;DHT22;1003;48.002;7.788;2022-08-19T23:08:13;17.20;99.90
2002;DHT22;1003;48.002;7.788;2022-08-19T23:10:42;16.90;99.90
2002;DHT22;1003;48.002;7.788;2022-08-19T23:13:09;16.90;99.90
2002;DHT22;1003;48.002;7.788;2022-08-19T23:15:36;16.90;99.90
2002;DHT22;1003;48.002;7.788;2022-08-19T23:18:04;16.70;99.90
2002;DHT22;1003;48.002;7.788;2022-08-19T23:20:33;16.80;99.90
2002;DHT22;1003;48.002;7.788;2022-08-19T23:23:06;16.50;99.90
2002;DHT22;1003;48.002;7.788;2022-08-19T23:25:37;16.80;99.90
2002;DHT22;1003;48.002;7.788;2022-08-19T23:28:06;16.80;99.90
2002;DHT22;1003;48.002;7.788;2022-08-19T23:30:52;16.80;99.90
2002;DHT22;1003;48.002;7.788;2022-08-19T23:33:22;16.60;99.90
2002;DHT22;1003;48.002;7.788;2022-08-19T23:35:52;16.70;99.90
2002;DHT22;1003;48.002;7.788;2022-08-19T23:38:21;16.80;99.90
2002;DHT22;1003;48.002;7.788;2022-08-19T23:40:50;16.40;99.90
2002;DHT22;1003;48.002;7.788;2022-08-19T23:43:20;16.20;99.90
2002;DHT22;1003;48.002;7.788;2022-08-19T23:45:48;16.20;99.90
2002;DHT22;1003;48.002;7.788;2022-08-19T23:48:15;16.60;99.90
2002;DHT22;1003;48.002;7.788;2022-08-19T23:50:44;16.20;99.90
2002;DHT22;1003;48.002;7.788;2022-08-19T23:53:13;16.50;99.90
2002;DHT22;1003;48.002;7.788;2022-08-19T23:55:44;16.20;99.90
2002;DHT22;1003;48.002;7.788;2022-08-19T23:58:14;16.10;99.90
